Time;durP1;ratioP1;P1;durP2;ratioP2;P2;SDS_P1;SDS_P2;PMS_P1;PMS_P2;Temp;Humidity;BMP_temperature;BMP_pressure;BME280_temperature;BME280_humidity;BME280_pressure;Samples;Min_cycle;Max_cycle;Signal;HPM_P1;HPM_P2
2023/04/28 00:01:26;;;;;;;;;;;;;;;9.66;100.00;95689.16;5080638;28;20298;-74
2023/04/28 00:03:54;;;;;;;;;;;;;;;9.66;100.00;95690.91;5088813;28;20049;-74
2023/04/28 00:06:20;;;;;;;;;;;;;;;9.65;100.00;95681.50;5077464;28;19932;-73
2023/04/28 00:08:46;;;;;;;;;;;;;;;9.55;100.00;95685.56;5079305;28;19931;-73
2023/04/28 00:11:12;;;;;;;;;;;;;;;9.63;100.00;95683.31;5085383;28;19924;-73
2023/04/28 00:13:40;;;;;;;;;;;;;;;9.66;100.00;95686.56;5079292;28;19994;-74
2023/04/28 00:16:07;;;;;;;;;;;;;;;9.68;100.00;95673.56;5076956;28;19924;-76
2023/04/28 00:18:34;;;;;;;;;;;;;;;9.69;100.00;95673.44;5081897;28;20422;-73
2023/04/28 00:21:00;;;;;;;;;;;;;;;9.72;100.00;95669.84;5080525;28;19930;-73
2023/04/28 00:23:27;;;;;;;;;;;;;;;9.65;100.00;95671.16;5082619;28;19932;-73
2023/04/28 00:25:53;;;;;;;;;;;;;;;9.61;100.00;95665.34;5073452;28;19929;-74
2023/04/28 00:28:19;;;;;;;;;;;;;;;9.48;100.00;95663.56;5081471;28;19978;-73
2023/04/28 00:30:47;;;;;;;;;;;;;;;9.57;100.00;95656.09;5078123;28;19928;-73
2023/04/28 00:33:13;;;;;;;;;;;;;;;9.68;100.00;95647.69;5088981;28;19928;-73
2023/04/28 00:35:40;;;;;;;;;;;;;;;9.72;100.00;95651.75;5073113;28;19925;-73
2023/04/28 00:38:06;;;;;;;;;;;;;;;9.73;100.00;95650.81;5088327;28;20295;-73
2023/04/28 00:40:33;;;;;;;;;;;;;;;9.77;100.00;95648.88;5074013;28;19924;-73
2023/04/28 00:43:00;;;;;;;;;;;;;;;9.80;100.00;95649.53;5074740;28;19975;-73
2023/04/28 00:45:26;;;;;;;;;;;;;;;9.85;100.00;95642.31;5085660;28;19970;-73
2023/04/28 00:47:54;;;;;;;;;;;;;;;9.84;100.00;95651.00;5078016;28;19985;-73
2023/04/28 00:50:21;;;;;;;;;;;;;;;9.90;100.00;95637.69;5078915;28;20278;-73
2023/04/28 00:52:47;;;;;;;;;;;;;;;9.93;100.00;95634.06;5079825;28;19925;-73
2023/04/28 00:55:14;;;;;;;;;;;;;;;9.90;100.00;95647.19;5083620;28;19981;-73
2023/04/28 00:57:41;;;;;;;;;;;;;;;9.88;100.00;95646.47;5068045;28;19975;-73
2023/04/28 01:00:08;;;;;;;;;;;;;;;9.74;100.00;95638.72;5070784;28;19924;-74
2023/04/28 01:02:35;;;;;;;;;;;;;;;9.75;100.00;95632.59;5077722;28;20275;-73
2023/04/28 01:05:02;;;;;;;;;;;;;;;9.79;100.00;95634.94;5071139;28;19982;-73
2023/04/28 01:07:29;;;;;;;;;;;;;;;9.82;100.00;95641.66;5072555;28;19932;-73
2023/04/28 01:09:55;;;;;;;;;;;;;;;9.85;100.00;95631.13;5080942;28;19970;-74
2023/04/28 01:12:22;;;;;;;;;;;;;;;9.85;100.00;95621.59;5080108;28;20026;-73
2023/04/28 01:14:49;;;;;;;;;;;;;;;9.84;100.00;95613.94;5074297;28;19932;-73
2023/04/28 01:17:15;;;;;;;;;;;;;;;9.76;100.00;95618.78;5071226;28;19970;-73
2023/04/28 01:19:41;;;;;;;;;;;;;;;9.72;100.00;95618.13;5082940;28;19924;-73
2023/04/28 01:22:10;;;;;;;;;;;;;;;9.77;100.00;95612.66;5079489;28;19924;-73
2023/04/28 01:24:37;;;;;;;;;;;;;;;9.71;100.00;95603.53;5082299;28;19928;-73
2023/04/28 01:27:04;;;;;;;;;;;;;;;9.66;100.00;95608.97;5082050;28;20410;-73
2023/04/28 01:29:31;;;;;;;;;;;;;;;9.64;100.00;95610.00;5065085;28;19925;-74
2023/04/28 01:31:57;;;;;;;;;;;;;;;9.56;100.00;95601.88;5077457;28;19924;-73
2023/04/28 01:34:23;;;;;;;;;;;;;;;9.57;100.00;95593.22;5075965;28;19982;-73
2023/04/28 01:36:50;;;;;;;;;;;;;;;9.56;100.00;95604.47;5080940;28;19951;-73
2023/04/28 01:39:16;;;;;;;;;;;;;;;9.36;100.00;95601.34;5078212;28;19970;-73
2023/04/28 01:41:43;;;;;;;;;;;;;;;9.34;100.00;95597.19;5083246;28;19924;-74
2023/04/28 01:44:11;;;;;;;;;;;;;;;9.36;100.00;95603.94;5072699;28;20390;-74
2023/04/28 01:46:38;;;;;;;;;;;;;;;9.33;100.00;95604.13;5082321;28;19944;-73
2023/04/28 01:49:04;;;;;;;;;;;;;;;9.42;100.00;95608.75;5084450;28;19924;-73
2023/04/28 01:51:31;;;;;;;;;;;;;;;9.47;100.00;95590.38;5082520;28;19924;-74
2023/04/28 01:53:58;;;;;;;;;;;;;;;9.45;100.00;95587.88;5071006;28;19978;-74
2023/04/28 01:56:24;;;;;;;;;;;;;;;9.47;100.00;95587.78;5068343;28;20522;-74
2023/04/28 01:58:51;;;;;;;;;;;;;;;9.51;100.00;95578.91;5080821;28;19927;-72
2023/04/28 02:01:18;;;;;;;;;;;;;;;9.50;100.00;95579.00;5080433;28;19970;-73
2023/04/28 02:03:44;;;;;;;;;;;;;;;9.45;100.00;95580.13;5078769;28;19929;-73
2023/04/28 02:06:10;;;;;;;;;;;;;;;9.40;100.00;95573.56;5079611;28;19987;-73
2023/04/28 02:08:37;;;;;;;;;;;;;;;9.36;100.00;95574.69;5081616;28;19924;-73
2023/04/28 02:11:03;;;;;;;;;;;;;;;9.30;100.00;95583.63;5079924;28;19932;-73
2023/04/28 02:13:29;;;;;;;;;;;;;;;9.31;100.00;95577.56;5070227;28;20081;-73
2023/04/28 02:16:00;;;;;;;;;;;;;;;9.20;100.00;95577.38;5090842;28;19931;-73
2023/04/28 02:18:26;;;;;;;;;;;;;;;9.17;100.00;95580.13;5064378;28;19971;-73
2023/04/28 02:20:52;;;;;;;;;;;;;;;9.02;100.00;95578.47;5079128;28;19974;-74
2023/04/28 02:23:18;;;;;;;;;;;;;;;9.01;100.00;95577.66;5080416;28;19929;-73
2023/04/28 02:25:45;;;;;;;;;;;;;;;9.03;100.00;95574.97;5073275;28;20006;-73
2023/04/28 02:28:11;;;;;;;;;;;;;;;8.95;100.00;95578.81;5076522;28;20731;-73
2023/04/28 02:30:38;;;;;;;;;;;;;;;9.06;100.00;95580.78;5079485;28;19923;-73
2023/04/28 02:33:05;;;;;;;;;;;;;;;9.01;100.00;95577.66;5082685;28;20383;-74
2023/04/28 02:35:31;;;;;;;;;;;;;;;9.09;100.00;95580.59;5078523;28;20295;-73
2023/04/28 02:37:58;;;;;;;;;;;;;;;9.09;100.00;95583.19;5070135;28;19924;-73
2023/04/28 02:40:24;;;;;;;;;;;;;;;9.16;100.00;95575.91;5081342;28;19925;-73
2023/04/28 02:42:50;;;;;;;;;;;;;;;9.14;100.00;95585.47;5084670;28;19938;-74
2023/04/28 02:45:17;;;;;;;;;;;;;;;9.14;100.00;95588.91;5074210;28;20491;-73
2023/04/28 02:47:43;;;;;;;;;;;;;;;9.28;100.00;95588.06;5080584;28;20398;-73
2023/04/28 02:50:11;;;;;;;;;;;;;;;9.25;100.00;95582.25;5083088;28;19951;-73
2023/04/28 02:52:37;;;;;;;;;;;;;;;9.20;100.00;95580.78;5085907;28;19978;-73
2023/04/28 02:55:03;;;;;;;;;;;;;;;9.17;100.00;95583.53;5082558;28;19928;-73
2023/04/28 02:57:30;;;;;;;;;;;;;;;9.22;100.00;95588.44;5073593;28;19929;-73
2023/04/28 02:59:56;;;;;;;;;;;;;;;9.26;100.00;95578.75;5079490;28;19924;-73
2023/04/28 03:02:22;;;;;;;;;;;;;;;9.29;100.00;95579.38;5079865;28;19970;-73
2023/04/28 03:04:49;;;;;;;;;;;;;;;9.34;100.00;95573.94;5080951;28;20018;-73
2023/04/28 03:07:16;;;;;;;;;;;;;;;9.32;100.00;95583.56;5086251;28;19981;-73
2023/04/28 03:09:44;;;;;;;;;;;;;;;9.28;100.00;95574.31;5074722;28;19966;-73
2023/04/28 03:12:11;;;;;;;;;;;;;;;9.38;100.00;95571.09;5076286;28;19928;-73
2023/04/28 03:14:37;;;;;;;;;;;;;;;9.32;100.00;95571.44;5063770;28;19978;-73
2023/04/28 03:17:03;;;;;;;;;;;;;;;9.40;100.00;95563.22;5087638;28;19981;-73
2023/04/28 03:19:29;;;;;;;;;;;;;;;9.39;100.00;95566.75;5073438;28;20349;-72
2023/04/28 03:21:56;;;;;;;;;;;;;;;9.42;100.00;95557.06;5075162;28;19970;-73
2023/04/28 03:24:23;;;;;;;;;;;;;;;9.43;100.00;95550.94;5078502;28;19928;-73
2023/04/28 03:26:50;;;;;;;;;;;;;;;9.44;100.00;95556.94;5074233;28;20422;-73
2023/04/28 03:29:16;;;;;;;;;;;;;;;9.36;100.00;95552.25;5083170;28;19932;-73
2023/04/28 03:31:42;;;;;;;;;;;;;;;9.39;100.00;95548.66;5077110;28;19928;-73
2023/04/28 03:34:08;;;;;;;;;;;;;;;9.32;100.00;95555.94;5081496;28;19928;-73
2023/04/28 03:36:35;;;;;;;;;;;;;;;9.32;100.00;95545.59;5075178;28;20555;-73
2023/04/28 03:39:01;;;;;;;;;;;;;;;9.25;100.00;95538.31;5070157;28;19994;-73
2023/04/28 03:41:29;;;;;;;;;;;;;;;9.25;100.00;95533.16;5077765;28;19931;-73
2023/04/28 03:43:55;;;;;;;;;;;;;;;9.36;100.00;95533.31;5072544;28;19932;-73
2023/04/28 03:46:21;;;;;;;;;;;;;;;9.42;100.00;95533.78;5072409;28;19951;-73
2023/04/28 03:48:48;;;;;;;;;;;;;;;9.48;100.00;95531.72;5075988;28;20040;-73
2023/04/28 03:51:14;;;;;;;;;;;;;;;9.52;100.00;95525.44;5079620;28;19924;-73
2023/04/28 03:53:40;;;;;;;;;;;;;;;9.54;100.00;95523.59;5081978;28;19928;-73
2023/04/28 03:56:07;;;;;;;;;;;;;;;9.47;100.00;95519.75;5079365;28;19980;-73
2023/04/28 03:58:35;;;;;;;;;;;;;;;9.54;100.00;95514.09;5078065;28;19928;-73
2023/04/28 04:01:01;;;;;;;;;;;;;;;9.57;100.00;95511.31;5078000;28;19924;-73
2023/04/28 04:03:28;;;;;;;;;;;;;;;9.53;100.00;95520.19;5084772;28;19924;-73
2023/04/28 04:05:54;;;;;;;;;;;;;;;9.51;100.00;95518.63;5083664;28;20379;-73
2023/04/28 04:08:21;;;;;;;;;;;;;;;9.49;100.00;95513.53;5074483;28;20003;-73
2023/04/28 04:10:47;;;;;;;;;;;;;;;9.56;100.00;95506.22;5075088;28;19932;-73
2023/04/28 04:13:13;;;;;;;;;;;;;;;9.52;100.00;95513.34;5072587;28;19981;-73
2023/04/28 04:15:41;;;;;;;;;;;;;;;9.50;100.00;95510.03;5076762;28;19928;-73
2023/04/28 04:18:07;;;;;;;;;;;;;;;9.53;100.00;95509.00;5069572;28;20416;-73
2023/04/28 04:20:33;;;;;;;;;;;;;;;9.59;100.00;95506.88;5085992;28;20405;-73
2023/04/28 04:23:00;;;;;;;;;;;;;;;9.58;100.00;95509.56;5079036;28;19935;-73
2023/04/28 04:25:27;;;;;;;;;;;;;;;9.56;100.00;95508.81;5088791;28;19928;-74
2023/04/28 04:27:53;;;;;;;;;;;;;;;9.59;100.00;95498.28;5085757;28;19967;-73
2023/04/28 04:30:19;;;;;;;;;;;;;;;9.62;100.00;95503.25;5083414;28;19925;-73
2023/04/28 04:32:47;;;;;;;;;;;;;;;9.61;100.00;95492.09;5084411;28;19978;-73
2023/04/28 04:35:13;;;;;;;;;;;;;;;9.66;100.00;95496.97;5082226;28;19932;-73
2023/04/28 04:37:40;;;;;;;;;;;;;;;9.73;100.00;95494.84;5084577;28;19981;-73
2023/04/28 04:40:06;;;;;;;;;;;;;;;9.76;100.00;95487.72;5083337;28;20349;-73
2023/04/28 04:42:33;;;;;;;;;;;;;;;9.78;100.00;95483.25;5077310;28;19924;-74
2023/04/28 04:44:59;;;;;;;;;;;;;;;9.84;100.00;95482.03;5079791;28;19977;-73
2023/04/28 04:47:25;;;;;;;;;;;;;;;9.72;100.00;95488.00;5080718;28;19924;-73
2023/04/28 04:49:53;;;;;;;;;;;;;;;9.45;100.00;95499.13;5078813;28;19925;-73
2023/04/28 04:52:19;;;;;;;;;;;;;;;9.36;100.00;95503.13;5083387;28;19978;-73
2023/04/28 04:54:46;;;;;;;;;;;;;;;9.45;100.00;95505.16;5084748;28;19929;-72
2023/04/28 04:57:12;;;;;;;;;;;;;;;9.51;100.00;95495.34;5083863;28;20445;-72
2023/04/28 04:59:39;;;;;;;;;;;;;;;9.56;100.00;95498.47;5079049;28;20011;-74
2023/04/28 05:02:05;;;;;;;;;;;;;;;9.62;100.00;95498.91;5086323;28;19924;-74
2023/04/28 05:04:31;;;;;;;;;;;;;;;9.60;100.00;95495.63;5082981;28;19974;-74
2023/04/28 05:06:59;;;;;;;;;;;;;;;9.64;100.00;95491.91;5087745;28;19924;-74
2023/04/28 05:09:25;;;;;;;;;;;;;;;9.61;100.00;95486.94;5079117;28;19928;-74
2023/04/28 05:11:52;;;;;;;;;;;;;;;9.69;100.00;95504.53;5077312;28;20384;-73
2023/04/28 05:14:18;;;;;;;;;;;;;;;9.71;100.00;95505.25;5078278;28;19932;-73
2023/04/28 05:16:45;;;;;;;;;;;;;;;9.67;100.00;95503.78;5077843;28;19928;-75
2023/04/28 05:19:11;;;;;;;;;;;;;;;9.71;100.00;95505.25;5072892;28;20563;-75
2023/04/28 05:21:37;;;;;;;;;;;;;;;9.77;100.00;95506.63;5071915;28;19929;-74
2023/04/28 05:24:05;;;;;;;;;;;;;;;9.66;100.00;95502.97;5067840;28;19928;-74
2023/04/28 05:26:32;;;;;;;;;;;;;;;9.73;100.00;95511.16;5076630;28;19933;-74
2023/04/28 05:28:58;;;;;;;;;;;;;;;9.74;100.00;95499.88;5067573;28;19950;-73
2023/04/28 05:31:24;;;;;;;;;;;;;;;9.77;100.00;95504.88;5075375;28;19928;-72
2023/04/28 05:33:51;;;;;;;;;;;;;;;9.86;100.00;95504.31;5064946;28;20290;-73
2023/04/28 05:36:17;;;;;;;;;;;;;;;9.94;100.00;95508.97;5072723;28;20023;-73
2023/04/28 05:38:44;;;;;;;;;;;;;;;9.90;100.00;95507.50;5079727;28;19970;-72
2023/04/28 05:41:11;;;;;;;;;;;;;;;9.95;100.00;95502.88;5083712;28;19973;-73
2023/04/28 05:43:38;;;;;;;;;;;;;;;9.96;100.00;95501.94;5082653;28;20377;-73
2023/04/28 05:46:04;;;;;;;;;;;;;;;9.92;100.00;95498.72;5079806;28;19924;-73
2023/04/28 05:48:30;;;;;;;;;;;;;;;9.86;100.00;95499.13;5067303;28;19933;-73
2023/04/28 05:50:57;;;;;;;;;;;;;;;9.92;100.00;95497.88;5076349;28;19924;-73
2023/04/28 05:53:23;;;;;;;;;;;;;;;9.87;100.00;95494.78;5089095;28;19927;-75
2023/04/28 05:55:49;;;;;;;;;;;;;;;9.92;100.00;95492.72;5079656;28;19928;-73
2023/04/28 05:58:17;;;;;;;;;;;;;;;9.86;100.00;95493.97;5081384;28;19978;-72
2023/04/28 06:00:43;;;;;;;;;;;;;;;9.87;100.00;95487.03;5079636;28;19932;-73
2023/04/28 06:03:10;;;;;;;;;;;;;;;9.93;100.00;95484.84;5074575;28;19969;-73
2023/04/28 06:05:36;;;;;;;;;;;;;;;9.99;100.00;95490.56;5084236;28;19977;-73
2023/04/28 06:08:03;;;;;;;;;;;;;;;9.98;100.00;95488.91;5080204;28;19935;-72
2023/04/28 06:10:29;;;;;;;;;;;;;;;10.00;100.00;95485.28;5083934;28;20006;-73
2023/04/28 06:12:55;;;;;;;;;;;;;;;10.05;100.00;95493.59;5078207;28;20283;-73
2023/04/28 06:15:23;;;;;;;;;;;;;;;10.08;100.00;95485.59;5070481;28;19933;-72
2023/04/28 06:17:50;;;;;;;;;;;;;;;10.11;100.00;95488.00;5079940;28;19970;-72
2023/04/28 06:20:16;;;;;;;;;;;;;;;10.18;100.00;95486.66;5081703;28;19930;-73
2023/04/28 06:22:42;;;;;;;;;;;;;;;10.25;100.00;95491.44;5076407;28;19929;-73
2023/04/28 06:25:09;;;;;;;;;;;;;;;10.30;100.00;95492.00;5072367;28;19924;-74
2023/04/28 06:27:35;;;;;;;;;;;;;;;10.29;100.00;95488.59;5080958;28;20314;-73
2023/04/28 06:30:01;;;;;;;;;;;;;;;10.25;100.00;95484.53;5070397;28;19928;-75
2023/04/28 06:32:29;;;;;;;;;;;;;;;10.25;100.00;95488.88;5083000;28;19932;-73
2023/04/28 06:34:55;;;;;;;;;;;;;;;10.34;100.00;95490.84;5072449;28;19924;-72
2023/04/28 06:37:22;;;;;;;;;;;;;;;10.32;100.00;95483.22;5081542;28;19983;-72
2023/04/28 06:39:48;;;;;;;;;;;;;;;10.25;100.00;95476.78;5077685;28;20390;-72
2023/04/28 06:42:17;;;;;;;;;;;;;;;10.30;100.00;95485.06;5077045;28;20349;-72
2023/04/28 06:44:43;;;;;;;;;;;;;;;10.26;100.00;95481.00;5080387;28;19927;-71
2023/04/28 06:47:09;;;;;;;;;;;;;;;10.39;100.00;95478.47;5079886;28;19978;-72
2023/04/28 06:49:37;;;;;;;;;;;;;;;10.45;100.00;95482.38;5079611;28;19932;-72
2023/04/28 06:52:03;;;;;;;;;;;;;;;10.40;100.00;95483.53;5077940;28;19981;-72
2023/04/28 06:54:29;;;;;;;;;;;;;;;10.38;100.00;95475.03;5069408;28;19928;-71
2023/04/28 06:56:56;;;;;;;;;;;;;;;10.38;100.00;95477.63;5070062;28;19933;-71
2023/04/28 06:59:22;;;;;;;;;;;;;;;10.38;100.00;95476.78;5080506;28;19939;-74
2023/04/28 07:01:48;;;;;;;;;;;;;;;10.42;100.00;95470.50;5078572;28;19928;-73
2023/04/28 07:04:15;;;;;;;;;;;;;;;10.49;100.00;95474.31;5072740;28;19932;-74
2023/04/28 07:06:42;;;;;;;;;;;;;;;10.39;100.00;95471.50;5083278;28;19928;-72
2023/04/28 07:09:09;;;;;;;;;;;;;;;10.47;100.00;95465.00;5070525;28;19990;-74
2023/04/28 07:11:35;;;;;;;;;;;;;;;10.49;100.00;95468.31;5073224;28;19975;-73
2023/04/28 07:14:02;;;;;;;;;;;;;;;10.47;100.00;95471.00;5083461;28;19950;-74
2023/04/28 07:16:28;;;;;;;;;;;;;;;10.50;100.00;95467.38;5069805;28;19936;-73
2023/04/28 07:18:54;;;;;;;;;;;;;;;10.50;100.00;95469.97;5081456;28;19928;-73
2023/04/28 07:21:21;;;;;;;;;;;;;;;10.50;100.00;95467.38;5074813;28;19925;-72
2023/04/28 07:23:49;;;;;;;;;;;;;;;10.51;100.00;95472.44;5074530;28;20048;-73
2023/04/28 07:26:15;;;;;;;;;;;;;;;10.51;100.00;95472.44;5070691;28;20568;-72
2023/04/28 07:28:41;;;;;;;;;;;;;;;10.47;100.00;95465.81;5081576;28;19924;-73
2023/04/28 07:31:08;;;;;;;;;;;;;;;10.43;100.00;95464.38;5069950;28;19929;-73
2023/04/28 07:33:34;;;;;;;;;;;;;;;10.44;100.00;95468.63;5076530;28;19924;-73
2023/04/28 07:36:00;;;;;;;;;;;;;;;10.46;100.00;95468.53;5081489;28;19932;-74
2023/04/28 07:38:27;;;;;;;;;;;;;;;10.48;100.00;95464.06;5076913;28;19928;-74
2023/04/28 07:40:54;;;;;;;;;;;;;;;10.48;100.00;95461.47;5070036;28;20659;-73
2023/04/28 07:43:20;;;;;;;;;;;;;;;10.47;100.00;95463.22;5073416;28;19932;-74
2023/04/28 07:45:48;;;;;;;;;;;;;;;10.51;100.00;95469.03;5079056;28;19939;-74
2023/04/28 07:48:14;;;;;;;;;;;;;;;10.57;100.00;95466.03;5063894;28;19943;-74
2023/04/28 07:50:41;;;;;;;;;;;;;;;10.53;100.00;95469.75;5074858;28;20031;-74
2023/04/28 07:53:07;;;;;;;;;;;;;;;10.57;100.00;95477.22;5071473;28;19924;-74
2023/04/28 07:55:34;;;;;;;;;;;;;;;10.56;100.00;95480.72;5061949;28;19964;-74
2023/04/28 07:58:01;;;;;;;;;;;;;;;10.54;100.00;95481.78;5074410;28;19977;-73
2023/04/28 08:00:27;;;;;;;;;;;;;;;10.57;100.00;95486.75;5080750;28;20356;-73
2023/04/28 08:02:55;;;;;;;;;;;;;;;10.61;100.00;95483.84;5076982;28;19999;-73
2023/04/28 08:05:21;;;;;;;;;;;;;;;10.69;100.00;95485.09;5076737;28;19937;-73
2023/04/28 08:07:48;;;;;;;;;;;;;;;10.73;100.00;95487.38;5085475;28;20588;-73
2023/04/28 08:10:14;;;;;;;;;;;;;;;10.70;100.00;95487.56;5084744;28;19928;-73
2023/04/28 08:12:40;;;;;;;;;;;;;;;10.74;100.00;95496.78;5084228;28;19990;-73
2023/04/28 08:15:08;;;;;;;;;;;;;;;10.75;100.00;95497.63;5082304;28;19924;-73
2023/04/28 08:17:35;;;;;;;;;;;;;;;10.84;100.00;95492.66;5070533;28;19928;-73
2023/04/28 08:20:01;;;;;;;;;;;;;;;10.92;100.00;95488.72;5078694;28;20015;-74
2023/04/28 08:22:27;;;;;;;;;;;;;;;10.89;100.00;95495.75;5083900;28;20385;-73
2023/04/28 08:24:54;;;;;;;;;;;;;;;10.98;100.00;95489.13;5087929;28;20000;-75
2023/04/28 08:27:20;;;;;;;;;;;;;;;11.03;100.00;95483.63;5082870;28;19929;-74
2023/04/28 08:29:46;;;;;;;;;;;;;;;11.07;100.00;95488.47;5078234;28;20299;-73
2023/04/28 08:32:14;;;;;;;;;;;;;;;11.14;100.00;95494.06;5079111;28;19936;-73
2023/04/28 08:34:40;;;;;;;;;;;;;;;11.20;100.00;95485.03;5078679;28;20513;-73
2023/04/28 08:37:07;;;;;;;;;;;;;;;11.24;100.00;95495.09;5076465;28;19931;-73
2023/04/28 08:39:34;;;;;;;;;;;;;;;11.35;100.00;95496.94;5091237;28;19977;-73
2023/04/28 08:42:03;;;;;;;;;;;;;;;11.38;100.00;95504.47;5074939;28;19935;-73
2023/04/28 08:44:32;;;;;;;;;;;;;;;11.44;100.00;95500.63;5086513;28;19986;-73
2023/04/28 08:47:00;;;;;;;;;;;;;;;11.41;100.00;95506.84;5080473;28;19929;-73
2023/04/28 08:49:32;;;;;;;;;;;;;;;11.48;100.00;95512.44;5077667;28;19928;-73
2023/04/28 08:51:59;;;;;;;;;;;;;;;11.48;100.00;95509.84;5070194;28;19924;-73
2023/04/28 08:54:29;;;;;;;;;;;;;;;11.52;100.00;95521.66;5082644;28;19924;-73
2023/04/28 08:56:56;;;;;;;;;;;;;;;11.55;100.00;95530.06;5072751;28;19974;-73
2023/04/28 08:59:22;;;;;;;;;;;;;;;11.60;100.00;95524.53;5074972;28;20416;-73
2023/04/28 09:01:49;;;;;;;;;;;;;;;11.62;100.00;95525.28;5077120;28;19955;-73
2023/04/28 09:04:16;;;;;;;;;;;;;;;11.64;100.00;95531.16;5083898;28;19982;-73
2023/04/28 09:06:45;;;;;;;;;;;;;;;11.60;100.00;95529.72;5073073;28;20275;-72
2023/04/28 09:09:18;;;;;;;;;;;;;;;11.68;100.00;95531.78;5073787;28;19925;-74
2023/04/28 09:11:50;;;;;;;;;;;;;;;11.73;100.00;95533.13;5075006;28;19924;-74
2023/04/28 09:14:16;;;;;;;;;;;;;;;11.83;100.00;95541.09;5080127;28;19977;-74
2023/04/28 09:16:43;;;;;;;;;;;;;;;11.88;100.00;95538.19;5082701;28;20005;-73
2023/04/28 09:19:09;;;;;;;;;;;;;;;12.01;100.00;95533.75;5082545;28;19924;-74
2023/04/28 09:21:47;;;;;;;;;;;;;;;12.05;100.00;95538.66;5077405;28;20338;-73
2023/04/28 09:24:25;;;;;;;;;;;;;;;12.12;100.00;95541.59;5078664;28;20028;-75
2023/04/28 09:26:51;;;;;;;;;;;;;;;12.24;100.00;95543.31;5079473;28;19986;-74
2023/04/28 09:29:17;;;;;;;;;;;;;;;12.27;100.00;95542.25;5085580;28;19969;-74
2023/04/28 09:31:44;;;;;;;;;;;;;;;12.34;100.00;95541.69;5084280;28;19974;-74
2023/04/28 09:34:11;;;;;;;;;;;;;;;12.52;100.00;95539.50;5082327;28;19924;-74
2023/04/28 09:36:37;;;;;;;;;;;;;;;12.68;100.00;95546.16;5069431;28;20386;-74
2023/04/28 09:39:05;;;;;;;;;;;;;;;12.80;100.00;95545.25;5080980;28;19983;-74
2023/04/28 09:41:38;;;;;;;;;;;;;;;12.87;100.00;95543.88;5080117;28;19931;-74
2023/04/28 09:44:14;;;;;;;;;;;;;;;12.99;100.00;95539.50;5071615;28;19950;-74
2023/04/28 09:46:40;;;;;;;;;;;;;;;13.18;100.00;95534.53;5080996;28;19924;-74
2023/04/28 09:49:07;;;;;;;;;;;;;;;13.22;100.00;95532.53;5079305;28;20351;-74
2023/04/28 09:51:34;;;;;;;;;;;;;;;13.29;100.00;95531.16;5077592;28;19928;-74
2023/04/28 09:54:01;;;;;;;;;;;;;;;13.37;100.00;95543.56;5086967;28;20344;-74
2023/04/28 09:56:29;;;;;;;;;;;;;;;13.42;100.00;95547.47;5079662;28;20011;-74
2023/04/28 09:58:56;;;;;;;;;;;;;;;13.50;100.00;95542.50;5087827;28;19932;-74
2023/04/28 10:01:23;;;;;;;;;;;;;;;13.60;100.00;95539.97;5074411;28;19994;-74
2023/04/28 10:03:50;;;;;;;;;;;;;;;13.59;100.00;95545.31;5080132;28;19981;-74
2023/04/28 10:06:16;;;;;;;;;;;;;;;13.69;100.00;95548.88;5069181;28;20014;-74
2023/04/28 10:08:44;;;;;;;;;;;;;;;13.80;100.00;95543.63;5072991;28;19924;-74
2023/04/28 10:11:12;;;;;;;;;;;;;;;13.83;100.00;95547.75;5083816;28;19924;-74
2023/04/28 10:13:40;;;;;;;;;;;;;;;13.85;100.00;95538.06;5075727;28;19928;-74
2023/04/28 10:16:07;;;;;;;;;;;;;;;13.86;100.00;95548.34;5072154;28;19947;-74
2023/04/28 10:18:34;;;;;;;;;;;;;;;13.93;100.00;95540.88;5076729;28;19935;-74
2023/04/28 10:21:03;;;;;;;;;;;;;;;13.91;100.00;95542.78;5076842;28;19928;-75
2023/04/28 10:23:38;;;;;;;;;;;;;;;13.95;100.00;95552.84;5078564;28;19924;-75
2023/04/28 10:26:09;;;;;;;;;;;;;;;14.03;100.00;95550.44;5066949;28;19928;-74
2023/04/28 10:28:35;;;;;;;;;;;;;;;14.14;100.00;95553.97;5073637;28;19982;-75
2023/04/28 10:31:13;;;;;;;;;;;;;;;14.16;100.00;95547.66;5075383;28;19931;-74
2023/04/28 10:33:40;;;;;;;;;;;;;;;14.16;100.00;95545.06;5074129;28;20383;-74
2023/04/28 10:36:06;;;;;;;;;;;;;;;14.16;100.00;95534.63;5078226;28;19924;-74
2023/04/28 10:38:33;;;;;;;;;;;;;;;14.23;100.00;95548.81;5082856;28;20397;-74
2023/04/28 10:41:01;;;;;;;;;;;;;;;14.28;100.00;95551.91;5064226;28;19932;-75
2023/04/28 10:43:36;;;;;;;;;;;;;;;14.19;100.00;95550.03;5076317;28;20004;-75
2023/04/28 10:46:04;;;;;;;;;;;;;;;14.15;100.00;95548.63;5068071;28;19924;-75
2023/04/28 10:49:04;;;;;;;;;;;;;;;14.10;100.00;95552.56;5079832;28;19928;-76
2023/04/28 10:51:32;;;;;;;;;;;;;;;14.09;100.00;95550.88;5076643;28;19928;-75
2023/04/28 10:54:18;;;;;;;;;;;;;;;14.06;100.00;95554.59;5070251;28;20445;-73
2023/04/28 10:57:03;;;;;;;;;;;;;;;14.14;100.00;95557.38;5066639;28;19924;-74
2023/04/28 10:59:29;;;;;;;;;;;;;;;14.22;100.00;95551.56;5075219;28;19932;-74
2023/04/28 11:01:55;;;;;;;;;;;;;;;14.21;100.00;95553.34;5083602;28;19932;-74
2023/04/28 11:04:23;;;;;;;;;;;;;;;14.20;100.00;95550.84;5067846;28;19929;-74
2023/04/28 11:07:05;;;;;;;;;;;;;;;14.26;100.00;95553.78;5074871;28;22300;-74
2023/04/28 11:09:48;;;;;;;;;;;;;;;14.25;100.00;95551.31;5076034;28;19986;-75
2023/04/28 11:12:15;;;;;;;;;;;;;;;14.31;100.00;95553.41;5069099;28;20030;-75
2023/04/28 11:14:41;;;;;;;;;;;;;;;14.36;100.00;95550.47;5076213;28;21350;-76
2023/04/28 11:17:08;;;;;;;;;;;;;;;14.43;100.00;95554.22;5077144;28;20279;-75
2023/04/28 11:19:36;;;;;;;;;;;;;;;14.49;100.00;95551.94;5068900;28;19932;-76
2023/04/28 11:22:03;;;;;;;;;;;;;;;14.55;100.00;95544.59;5081182;28;20298;-76
2023/04/28 11:24:31;;;;;;;;;;;;;;;14.63;100.00;95544.78;5067672;28;19925;-76
2023/04/28 11:26:58;;;;;;;;;;;;;;;14.68;100.00;95545.22;5072228;28;19924;-76
2023/04/28 11:29:32;;;;;;;;;;;;;;;14.70;100.00;95554.56;5074890;28;19977;-75
2023/04/28 11:31:58;;;;;;;;;;;;;;;14.81;100.00;95550.25;5076108;28;19997;-76
2023/04/28 11:34:25;;;;;;;;;;;;;;;14.90;100.00;95557.31;5075095;28;19932;-75
2023/04/28 11:36:51;;;;;;;;;;;;;;;14.95;100.00;95547.34;5082216;28;19946;-74
2023/04/28 11:39:25;;;;;;;;;;;;;;;14.96;100.00;95551.59;5075424;28;20415;-75
2023/04/28 11:41:51;;;;;;;;;;;;;;;15.00;100.00;95545.97;5075287;28;19940;-75
2023/04/28 11:44:19;;;;;;;;;;;;;;;15.08;100.00;95558.38;5079985;28;19970;-73
2023/04/28 11:46:49;;;;;;;;;;;;;;;15.14;100.00;95552.66;5080830;28;20352;-75
2023/04/28 11:49:16;;;;;;;;;;;;;;;15.11;100.00;95557.31;5069455;28;20417;-74
2023/04/28 11:51:44;;;;;;;;;;;;;;;15.14;100.00;95549.22;5084161;28;19978;-74
2023/04/28 11:54:13;;;;;;;;;;;;;;;15.22;100.00;95546.78;5080226;28;19931;-74
2023/04/28 11:56:40;;;;;;;;;;;;;;;15.35;100.00;95539.56;5071707;28;19936;-74
2023/04/28 11:59:07;;;;;;;;;;;;;;;15.48;100.00;95531.50;5077441;28;19928;-74
2023/04/28 12:01:37;;;;;;;;;;;;;;;15.51;100.00;95522.59;5074703;28;19928;-74
2023/04/28 12:04:03;;;;;;;;;;;;;;;15.49;100.00;95526.16;5079006;28;20011;-74
2023/04/28 12:06:29;;;;;;;;;;;;;;;15.48;100.00;95531.50;5073893;28;19936;-74
2023/04/28 12:08:56;;;;;;;;;;;;;;;15.45;100.00;95537.00;5075244;28;19928;-74
2023/04/28 12:11:23;;;;;;;;;;;;;;;15.42;100.00;95527.63;5077293;28;20453;-74
2023/04/28 12:14:02;;;;;;;;;;;;;;;15.42;100.00;95542.47;5080590;28;19944;-74
2023/04/28 12:16:41;;;;;;;;;;;;;;;15.49;100.00;95533.16;5078597;28;19928;-74
2023/04/28 12:19:09;;;;;;;;;;;;;;;15.53;100.00;95531.94;5065077;28;20043;-74
2023/04/28 12:21:36;;;;;;;;;;;;;;;15.60;100.00;95525.22;5077435;28;19924;-74
2023/04/28 12:24:12;;;;;;;;;;;;;;;15.58;100.00;95526.34;5078043;28;19924;-75
2023/04/28 12:26:39;;;;;;;;;;;;;;;15.52;100.00;95524.25;5074782;28;19970;-74
2023/04/28 12:29:05;;;;;;;;;;;;;;;15.50;100.00;95537.44;5081162;28;19931;-75
2023/04/28 12:31:31;;;;;;;;;;;;;;;15.52;100.00;95526.84;5076733;28;19924;-73
2023/04/28 12:33:59;;;;;;;;;;;;;;;15.49;100.00;95527.94;5080199;28;20393;-75
2023/04/28 12:36:25;;;;;;;;;;;;;;;15.45;100.00;95532.59;5078390;28;20345;-74
2023/04/28 12:38:51;;;;;;;;;;;;;;;15.47;100.00;95532.47;5077267;28;19932;-74
2023/04/28 12:41:18;;;;;;;;;;;;;;;15.52;100.00;95540.72;5079196;28;19924;-74